Ana Sayfa
METAR-TAF:

METAR-TAF

Havaalanları :

Ocean County, New Jersey, Amerika Birleşik Devletleri

Enlem: 39-55-39N, Boylam: 074-17-33W, yükseklik: 25 m

Güncel hava durumu gözlemi

Rapor saat 19:56 UTC de 1 saat ve 4 dakika önce yapıldı.
Rüzgar batı/kuzeybatıdan 14 kt ve 20 kt'a kadar ani rüzgarlar
Sıcaklık 22°C
Nem 27%
Basınç 1018 hPa
Görüş mesafesi: 16.1 km
Açık gökyüzü

METAR: KMJX 311956Z AUTO 30014G20KT 10SM CLR 22/02 A3006 RMK AO2 SLP182 T02170022

Saat: 17:00 (21:00 UTC)


TAF: eksik

4.000'den fazla havaalanı için hava durumu gözlemleri ve tahminleri (METAR ve TAF raporları).

Kullanılabilir istasyonlar harita üzerinde sarı ve kırmızı noktalarla gösterilir.

İstasyonun adını görmek için fareyi noktanın üzerinde gezdirin.

Sonrasında hava gözlem ve tahminlerini görmek için tıklayın.

Haritayı değiştirmek için: yaklaştırmak için siyah artı işaretli yeşil düğmeye ve uzaklaştırmak için de eksi işaretli düğmeye hızla tıklayın; bitişik haritalar için yeşil okları kullanın.


METAR-TAF: